sensor_id;sensor_type;location;lat;lon;timestamp;P1;durP1;ratioP1;P2;durP2;ratioP2
83769;SDS011;73763;48.936;9.300;2023-12-04T00:01:47;25.33;;;16.53;;
83769;SDS011;73763;48.936;9.300;2023-12-04T00:04:13;26.90;;;17.13;;
83769;SDS011;73763;48.936;9.300;2023-12-04T00:06:38;24.17;;;15.43;;
83769;SDS011;73763;48.936;9.300;2023-12-04T00:09:05;26.17;;;16.27;;
83769;SDS011;73763;48.936;9.300;2023-12-04T00:11:31;25.08;;;15.90;;
83769;SDS011;73763;48.936;9.300;2023-12-04T00:13:56;25.53;;;15.73;;
83769;SDS011;73763;48.936;9.300;2023-12-04T00:16:22;24.92;;;15.70;;
83769;SDS011;73763;48.936;9.300;2023-12-04T00:18:48;25.60;;;16.33;;
83769;SDS011;73763;48.936;9.300;2023-12-04T00:21:13;24.30;;;15.82;;
83769;SDS011;73763;48.936;9.300;2023-12-04T00:23:39;25.47;;;16.27;;
83769;SDS011;73763;48.936;9.300;2023-12-04T00:26:04;28.73;;;17.17;;
83769;SDS011;73763;48.936;9.300;2023-12-04T00:28:31;27.02;;;16.85;;
83769;SDS011;73763;48.936;9.300;2023-12-04T00:30:56;29.13;;;17.35;;
83769;SDS011;73763;48.936;9.300;2023-12-04T00:33:22;26.53;;;17.10;;
83769;SDS011;73763;48.936;9.300;2023-12-04T00:35:47;29.10;;;16.73;;
83769;SDS011;73763;48.936;9.300;2023-12-04T00:38:13;26.27;;;16.37;;
83769;SDS011;73763;48.936;9.300;2023-12-04T00:40:38;24.50;;;16.20;;
83769;SDS011;73763;48.936;9.300;2023-12-04T00:43:04;26.10;;;16.40;;
83769;SDS011;73763;48.936;9.300;2023-12-04T00:45:29;25.20;;;16.23;;
83769;SDS011;73763;48.936;9.300;2023-12-04T00:47:55;26.85;;;16.83;;
83769;SDS011;73763;48.936;9.300;2023-12-04T00:50:20;27.50;;;16.97;;
83769;SDS011;73763;48.936;9.300;2023-12-04T00:52:46;26.67;;;17.27;;
83769;SDS011;73763;48.936;9.300;2023-12-04T00:55:11;26.02;;;16.73;;
83769;SDS011;73763;48.936;9.300;2023-12-04T00:57:37;27.95;;;17.15;;
83769;SDS011;73763;48.936;9.300;2023-12-04T01:00:03;25.07;;;16.33;;
83769;SDS011;73763;48.936;9.300;2023-12-04T01:02:29;29.50;;;17.88;;
83769;SDS011;73763;48.936;9.300;2023-12-04T01:04:54;27.15;;;16.58;;
83769;SDS011;73763;48.936;9.300;2023-12-04T01:07:20;25.37;;;16.40;;
83769;SDS011;73763;48.936;9.300;2023-12-04T01:09:45;27.67;;;17.03;;
83769;SDS011;73763;48.936;9.300;2023-12-04T01:12:11;25.23;;;16.23;;
83769;SDS011;73763;48.936;9.300;2023-12-04T01:14:36;24.37;;;16.20;;
83769;SDS011;73763;48.936;9.300;2023-12-04T01:17:02;24.17;;;15.90;;
83769;SDS011;73763;48.936;9.300;2023-12-04T01:19:27;24.33;;;16.23;;
83769;SDS011;73763;48.936;9.300;2023-12-04T01:21:53;25.53;;;16.93;;
83769;SDS011;73763;48.936;9.300;2023-12-04T01:24:19;26.03;;;17.47;;
83769;SDS011;73763;48.936;9.300;2023-12-04T01:26:44;25.08;;;16.90;;
83769;SDS011;73763;48.936;9.300;2023-12-04T01:29:10;25.20;;;16.70;;
83769;SDS011;73763;48.936;9.300;2023-12-04T01:31:35;25.33;;;16.07;;
83769;SDS011;73763;48.936;9.300;2023-12-04T01:34:01;27.63;;;17.52;;
83769;SDS011;73763;48.936;9.300;2023-12-04T01:36:26;26.75;;;16.65;;
83769;SDS011;73763;48.936;9.300;2023-12-04T01:38:52;24.53;;;15.83;;
83769;SDS011;73763;48.936;9.300;2023-12-04T01:41:17;24.90;;;16.67;;
83769;SDS011;73763;48.936;9.300;2023-12-04T01:43:43;24.80;;;16.58;;
83769;SDS011;73763;48.936;9.300;2023-12-04T01:46:08;24.23;;;16.10;;
83769;SDS011;73763;48.936;9.300;2023-12-04T01:48:35;25.50;;;15.10;;
83769;SDS011;73763;48.936;9.300;2023-12-04T01:51:03;24.02;;;15.32;;
83769;SDS011;73763;48.936;9.300;2023-12-04T01:53:31;23.48;;;15.38;;
83769;SDS011;73763;48.936;9.300;2023-12-04T01:55:58;24.30;;;15.55;;
83769;SDS011;73763;48.936;9.300;2023-12-04T01:58:23;24.85;;;15.82;;
83769;SDS011;73763;48.936;9.300;2023-12-04T02:00:49;23.05;;;15.10;;
83769;SDS011;73763;48.936;9.300;2023-12-04T02:03:15;22.27;;;14.85;;
83769;SDS011;73763;48.936;9.300;2023-12-04T02:05:40;23.80;;;14.70;;
83769;SDS011;73763;48.936;9.300;2023-12-04T02:08:09;22.92;;;15.20;;
83769;SDS011;73763;48.936;9.300;2023-12-04T02:10:35;24.37;;;15.77;;
83769;SDS011;73763;48.936;9.300;2023-12-04T02:13:00;21.98;;;14.27;;
83769;SDS011;73763;48.936;9.300;2023-12-04T02:15:26;24.30;;;15.77;;
83769;SDS011;73763;48.936;9.300;2023-12-04T02:17:52;22.93;;;14.67;;
83769;SDS011;73763;48.936;9.300;2023-12-04T02:20:17;20.10;;;13.75;;
83769;SDS011;73763;48.936;9.300;2023-12-04T02:22:43;21.87;;;14.47;;
83769;SDS011;73763;48.936;9.300;2023-12-04T02:25:09;20.77;;;14.17;;
83769;SDS011;73763;48.936;9.300;2023-12-04T02:27:47;22.42;;;14.68;;
83769;SDS011;73763;48.936;9.300;2023-12-04T02:30:15;23.75;;;15.05;;
83769;SDS011;73763;48.936;9.300;2023-12-04T02:32:45;22.80;;;14.80;;
83769;SDS011;73763;48.936;9.300;2023-12-04T02:35:12;22.23;;;14.63;;
83769;SDS011;73763;48.936;9.300;2023-12-04T02:37:40;22.95;;;15.00;;
83769;SDS011;73763;48.936;9.300;2023-12-04T02:40:06;20.98;;;13.23;;
83769;SDS011;73763;48.936;9.300;2023-12-04T02:42:32;21.02;;;13.45;;
83769;SDS011;73763;48.936;9.300;2023-12-04T02:44:58;19.40;;;12.77;;
83769;SDS011;73763;48.936;9.300;2023-12-04T02:47:24;19.20;;;12.95;;
83769;SDS011;73763;48.936;9.300;2023-12-04T02:49:49;20.87;;;13.63;;
83769;SDS011;73763;48.936;9.300;2023-12-04T02:52:15;20.40;;;13.80;;
83769;SDS011;73763;48.936;9.300;2023-12-04T02:54:40;21.40;;;13.90;;
83769;SDS011;73763;48.936;9.300;2023-12-04T02:57:06;21.43;;;13.67;;
83769;SDS011;73763;48.936;9.300;2023-12-04T02:59:31;18.17;;;12.67;;
83769;SDS011;73763;48.936;9.300;2023-12-04T03:01:57;19.98;;;13.63;;
83769;SDS011;73763;48.936;9.300;2023-12-04T03:04:22;19.87;;;12.70;;
83769;SDS011;73763;48.936;9.300;2023-12-04T03:06:48;18.37;;;12.50;;
83769;SDS011;73763;48.936;9.300;2023-12-04T03:09:13;20.65;;;13.13;;
83769;SDS011;73763;48.936;9.300;2023-12-04T03:11:39;19.23;;;12.80;;
83769;SDS011;73763;48.936;9.300;2023-12-04T03:14:05;18.88;;;12.35;;
83769;SDS011;73763;48.936;9.300;2023-12-04T03:16:31;17.00;;;11.43;;
83769;SDS011;73763;48.936;9.300;2023-12-04T03:18:57;17.80;;;11.80;;
83769;SDS011;73763;48.936;9.300;2023-12-04T03:21:22;18.87;;;12.20;;
83769;SDS011;73763;48.936;9.300;2023-12-04T03:23:48;18.13;;;11.30;;
83769;SDS011;73763;48.936;9.300;2023-12-04T03:26:13;18.65;;;12.15;;
83769;SDS011;73763;48.936;9.300;2023-12-04T03:28:39;20.40;;;12.50;;
83769;SDS011;73763;48.936;9.300;2023-12-04T03:31:04;16.87;;;11.63;;
83769;SDS011;73763;48.936;9.300;2023-12-04T03:33:30;20.48;;;13.52;;
83769;SDS011;73763;48.936;9.300;2023-12-04T03:35:56;17.87;;;12.00;;
83769;SDS011;73763;48.936;9.300;2023-12-04T03:38:21;18.77;;;12.65;;
83769;SDS011;73763;48.936;9.300;2023-12-04T03:40:47;18.90;;;12.17;;
83769;SDS011;73763;48.936;9.300;2023-12-04T03:43:12;17.40;;;11.15;;
83769;SDS011;73763;48.936;9.300;2023-12-04T03:45:38;16.73;;;11.50;;
83769;SDS011;73763;48.936;9.300;2023-12-04T03:48:03;17.53;;;12.07;;
83769;SDS011;73763;48.936;9.300;2023-12-04T03:50:29;17.85;;;11.75;;
83769;SDS011;73763;48.936;9.300;2023-12-04T03:52:54;17.98;;;11.75;;
83769;SDS011;73763;48.936;9.300;2023-12-04T03:55:20;18.00;;;11.50;;
83769;SDS011;73763;48.936;9.300;2023-12-04T03:57:45;20.37;;;12.30;;
83769;SDS011;73763;48.936;9.300;2023-12-04T04:00:11;17.05;;;12.07;;
83769;SDS011;73763;48.936;9.300;2023-12-04T04:02:38;17.38;;;11.88;;
83769;SDS011;73763;48.936;9.300;2023-12-04T04:05:05;17.57;;;11.97;;
83769;SDS011;73763;48.936;9.300;2023-12-04T04:07:30;17.83;;;12.20;;
83769;SDS011;73763;48.936;9.300;2023-12-04T04:09:56;18.97;;;11.77;;
83769;SDS011;73763;48.936;9.300;2023-12-04T04:12:21;17.92;;;11.50;;
83769;SDS011;73763;48.936;9.300;2023-12-04T04:14:47;18.30;;;11.90;;
83769;SDS011;73763;48.936;9.300;2023-12-04T04:17:12;21.40;;;12.57;;
83769;SDS011;73763;48.936;9.300;2023-12-04T04:19:38;17.75;;;11.70;;
83769;SDS011;73763;48.936;9.300;2023-12-04T04:22:03;17.13;;;11.17;;
83769;SDS011;73763;48.936;9.300;2023-12-04T04:24:29;17.20;;;11.43;;
83769;SDS011;73763;48.936;9.300;2023-12-04T04:26:54;14.98;;;9.88;;
83769;SDS011;73763;48.936;9.300;2023-12-04T04:29:20;12.67;;;8.70;;
83769;SDS011;73763;48.936;9.300;2023-12-04T04:31:45;12.00;;;8.43;;
83769;SDS011;73763;48.936;9.300;2023-12-04T04:34:11;11.27;;;7.40;;
83769;SDS011;73763;48.936;9.300;2023-12-04T04:36:36;9.57;;;7.10;;
83769;SDS011;73763;48.936;9.300;2023-12-04T04:39:02;10.85;;;7.18;;
83769;SDS011;73763;48.936;9.300;2023-12-04T04:41:27;11.23;;;7.45;;
83769;SDS011;73763;48.936;9.300;2023-12-04T04:43:53;10.67;;;7.27;;
83769;SDS011;73763;48.936;9.300;2023-12-04T04:46:18;10.57;;;7.50;;
83769;SDS011;73763;48.936;9.300;2023-12-04T04:48:44;11.73;;;7.90;;
83769;SDS011;73763;48.936;9.300;2023-12-04T04:51:09;10.77;;;8.10;;
83769;SDS011;73763;48.936;9.300;2023-12-04T04:53:35;12.57;;;8.43;;
83769;SDS011;73763;48.936;9.300;2023-12-04T04:56:01;16.05;;;10.52;;
83769;SDS011;73763;48.936;9.300;2023-12-04T04:58:26;16.37;;;11.60;;
83769;SDS011;73763;48.936;9.300;2023-12-04T05:00:52;16.67;;;11.13;;
83769;SDS011;73763;48.936;9.300;2023-12-04T05:03:17;15.50;;;10.32;;
83769;SDS011;73763;48.936;9.300;2023-12-04T05:05:43;16.27;;;10.20;;
83769;SDS011;73763;48.936;9.300;2023-12-04T05:08:08;17.53;;;11.27;;
83769;SDS011;73763;48.936;9.300;2023-12-04T05:10:34;16.75;;;11.00;;
83769;SDS011;73763;48.936;9.300;2023-12-04T05:12:59;17.70;;;11.80;;
83769;SDS011;73763;48.936;9.300;2023-12-04T05:15:24;18.27;;;11.70;;
83769;SDS011;73763;48.936;9.300;2023-12-04T05:17:50;17.38;;;11.23;;
83769;SDS011;73763;48.936;9.300;2023-12-04T05:20:16;17.00;;;11.02;;
83769;SDS011;73763;48.936;9.300;2023-12-04T05:22:42;15.07;;;11.10;;
83769;SDS011;73763;48.936;9.300;2023-12-04T05:25:07;17.53;;;11.30;;
83769;SDS011;73763;48.936;9.300;2023-12-04T05:27:33;14.65;;;9.85;;
83769;SDS011;73763;48.936;9.300;2023-12-04T05:29:58;13.20;;;9.15;;
83769;SDS011;73763;48.936;9.300;2023-12-04T05:32:24;13.47;;;9.20;;
83769;SDS011;73763;48.936;9.300;2023-12-04T05:34:49;14.77;;;9.82;;
83769;SDS011;73763;48.936;9.300;2023-12-04T05:37:15;15.35;;;9.90;;
83769;SDS011;73763;48.936;9.300;2023-12-04T05:39:41;15.23;;;9.97;;
83769;SDS011;73763;48.936;9.300;2023-12-04T05:42:06;14.50;;;9.65;;
83769;SDS011;73763;48.936;9.300;2023-12-04T05:44:33;14.60;;;10.47;;
83769;SDS011;73763;48.936;9.300;2023-12-04T05:46:59;14.20;;;9.40;;
83769;SDS011;73763;48.936;9.300;2023-12-04T05:49:24;11.77;;;7.90;;
83769;SDS011;73763;48.936;9.300;2023-12-04T05:51:50;12.60;;;8.60;;
83769;SDS011;73763;48.936;9.300;2023-12-04T05:54:15;13.03;;;8.50;;
83769;SDS011;73763;48.936;9.300;2023-12-04T05:56:41;12.15;;;7.93;;
83769;SDS011;73763;48.936;9.300;2023-12-04T05:59:06;11.97;;;8.20;;
83769;SDS011;73763;48.936;9.300;2023-12-04T06:01:31;10.23;;;6.73;;
83769;SDS011;73763;48.936;9.300;2023-12-04T06:03:57;9.48;;;7.10;;
83769;SDS011;73763;48.936;9.300;2023-12-04T06:06:22;12.77;;;8.17;;
83769;SDS011;73763;48.936;9.300;2023-12-04T06:08:48;12.67;;;7.93;;
83769;SDS011;73763;48.936;9.300;2023-12-04T06:11:13;12.25;;;8.00;;
83769;SDS011;73763;48.936;9.300;2023-12-04T06:13:39;11.17;;;7.73;;
83769;SDS011;73763;48.936;9.300;2023-12-04T06:16:05;10.43;;;7.13;;
83769;SDS011;73763;48.936;9.300;2023-12-04T06:18:31;10.40;;;7.10;;
83769;SDS011;73763;48.936;9.300;2023-12-04T06:20:56;10.18;;;6.60;;
83769;SDS011;73763;48.936;9.300;2023-12-04T06:23:22;9.63;;;6.80;;
83769;SDS011;73763;48.936;9.300;2023-12-04T06:25:47;10.20;;;7.20;;
83769;SDS011;73763;48.936;9.300;2023-12-04T06:28:13;10.60;;;7.27;;
83769;SDS011;73763;48.936;9.300;2023-12-04T06:30:39;10.33;;;7.40;;
83769;SDS011;73763;48.936;9.300;2023-12-04T06:33:05;11.18;;;7.22;;
83769;SDS011;73763;48.936;9.300;2023-12-04T06:35:31;10.27;;;7.10;;
83769;SDS011;73763;48.936;9.300;2023-12-04T06:37:56;9.93;;;6.87;;
83769;SDS011;73763;48.936;9.300;2023-12-04T06:40:27;10.32;;;7.55;;
83769;SDS011;73763;48.936;9.300;2023-12-04T06:42:53;14.38;;;8.55;;
83769;SDS011;73763;48.936;9.300;2023-12-04T06:45:19;10.88;;;7.43;;
83769;SDS011;73763;48.936;9.300;2023-12-04T06:47:45;10.13;;;7.22;;
83769;SDS011;73763;48.936;9.300;2023-12-04T06:50:13;11.50;;;7.32;;
83769;SDS011;73763;48.936;9.300;2023-12-04T06:52:38;10.35;;;7.22;;
83769;SDS011;73763;48.936;9.300;2023-12-04T06:55:04;11.68;;;7.85;;
83769;SDS011;73763;48.936;9.300;2023-12-04T06:57:30;11.20;;;7.60;;
83769;SDS011;73763;48.936;9.300;2023-12-04T06:59:55;10.97;;;8.17;;
83769;SDS011;73763;48.936;9.300;2023-12-04T07:02:21;12.80;;;8.33;;
83769;SDS011;73763;48.936;9.300;2023-12-04T07:04:46;12.43;;;8.30;;
83769;SDS011;73763;48.936;9.300;2023-12-04T07:07:12;12.70;;;8.17;;
83769;SDS011;73763;48.936;9.300;2023-12-04T07:09:37;12.40;;;7.87;;
83769;SDS011;73763;48.936;9.300;2023-12-04T07:12:03;11.43;;;7.85;;
83769;SDS011;73763;48.936;9.300;2023-12-04T07:14:28;10.83;;;7.87;;
83769;SDS011;73763;48.936;9.300;2023-12-04T07:16:54;10.80;;;7.40;;
83769;SDS011;73763;48.936;9.300;2023-12-04T07:19:19;11.88;;;7.95;;
83769;SDS011;73763;48.936;9.300;2023-12-04T07:21:45;11.10;;;7.60;;
83769;SDS011;73763;48.936;9.300;2023-12-04T07:24:10;10.97;;;7.73;;
83769;SDS011;73763;48.936;9.300;2023-12-04T07:26:36;10.70;;;7.55;;
83769;SDS011;73763;48.936;9.300;2023-12-04T07:29:02;10.48;;;7.32;;
83769;SDS011;73763;48.936;9.300;2023-12-04T07:31:28;10.82;;;7.32;;
83769;SDS011;73763;48.936;9.300;2023-12-04T07:33:54;10.77;;;7.50;;
83769;SDS011;73763;48.936;9.300;2023-12-04T07:36:20;11.13;;;7.32;;
83769;SDS011;73763;48.936;9.300;2023-12-04T07:38:45;11.25;;;7.07;;
83769;SDS011;73763;48.936;9.300;2023-12-04T07:41:11;11.18;;;7.38;;
83769;SDS011;73763;48.936;9.300;2023-12-04T07:43:36;10.27;;;7.00;;
83769;SDS011;73763;48.936;9.300;2023-12-04T07:46:02;11.50;;;6.90;;
83769;SDS011;73763;48.936;9.300;2023-12-04T07:48:28;11.88;;;7.82;;
83769;SDS011;73763;48.936;9.300;2023-12-04T07:50:54;11.05;;;7.47;;
83769;SDS011;73763;48.936;9.300;2023-12-04T07:53:19;10.23;;;7.40;;
83769;SDS011;73763;48.936;9.300;2023-12-04T07:55:45;10.63;;;7.50;;
83769;SDS011;73763;48.936;9.300;2023-12-04T07:58:10;11.90;;;7.83;;
83769;SDS011;73763;48.936;9.300;2023-12-04T08:00:35;12.13;;;7.53;;
83769;SDS011;73763;48.936;9.300;2023-12-04T08:03:01;11.90;;;7.50;;
83769;SDS011;73763;48.936;9.300;2023-12-04T08:05:26;11.00;;;7.38;;
83769;SDS011;73763;48.936;9.300;2023-12-04T08:07:52;10.47;;;7.10;;
83769;SDS011;73763;48.936;9.300;2023-12-04T08:10:18;10.57;;;6.97;;
83769;SDS011;73763;48.936;9.300;2023-12-04T08:12:46;10.70;;;7.38;;
83769;SDS011;73763;48.936;9.300;2023-12-04T08:15:12;10.80;;;6.87;;
83769;SDS011;73763;48.936;9.300;2023-12-04T08:17:37;9.87;;;6.50;;
83769;SDS011;73763;48.936;9.300;2023-12-04T08:20:03;9.93;;;7.07;;
83769;SDS011;73763;48.936;9.300;2023-12-04T08:22:28;10.38;;;6.95;;
83769;SDS011;73763;48.936;9.300;2023-12-04T08:24:54;13.17;;;9.13;;
83769;SDS011;73763;48.936;9.300;2023-12-04T08:27:19;10.17;;;7.50;;
83769;SDS011;73763;48.936;9.300;2023-12-04T08:29:45;11.40;;;7.80;;
83769;SDS011;73763;48.936;9.300;2023-12-04T08:32:10;11.50;;;7.53;;
83769;SDS011;73763;48.936;9.300;2023-12-04T08:34:36;9.80;;;6.97;;
83769;SDS011;73763;48.936;9.300;2023-12-04T08:37:01;10.80;;;7.60;;
83769;SDS011;73763;48.936;9.300;2023-12-04T08:39:27;11.83;;;7.73;;
83769;SDS011;73763;48.936;9.300;2023-12-04T08:41:52;9.82;;;7.13;;
83769;SDS011;73763;48.936;9.300;2023-12-04T08:44:18;10.38;;;7.03;;
83769;SDS011;73763;48.936;9.300;2023-12-04T08:46:43;11.47;;;7.17;;
83769;SDS011;73763;48.936;9.300;2023-12-04T08:49:09;10.77;;;6.93;;
83769;SDS011;73763;48.936;9.300;2023-12-04T08:51:35;12.17;;;7.50;;
83769;SDS011;73763;48.936;9.300;2023-12-04T08:54:01;11.23;;;7.93;;
83769;SDS011;73763;48.936;9.300;2023-12-04T08:56:26;10.48;;;7.43;;
83769;SDS011;73763;48.936;9.300;2023-12-04T08:58:52;11.57;;;7.77;;
83769;SDS011;73763;48.936;9.300;2023-12-04T09:01:17;13.63;;;8.03;;
83769;SDS011;73763;48.936;9.300;2023-12-04T09:03:43;12.45;;;7.63;;
83769;SDS011;73763;48.936;9.300;2023-12-04T09:06:08;12.93;;;8.53;;
83769;SDS011;73763;48.936;9.300;2023-12-04T09:08:34;12.85;;;7.70;;
83769;SDS011;73763;48.936;9.300;2023-12-04T09:11:00;12.35;;;7.75;;
83769;SDS011;73763;48.936;9.300;2023-12-04T09:13:25;11.23;;;7.65;;
83769;SDS011;73763;48.936;9.300;2023-12-04T09:15:51;11.80;;;7.77;;
83769;SDS011;73763;48.936;9.300;2023-12-04T09:18:16;12.10;;;8.68;;
83769;SDS011;73763;48.936;9.300;2023-12-04T09:21:19;10.20;;;7.70;;
83769;SDS011;73763;48.936;9.300;2023-12-04T09:23:44;12.40;;;8.30;;
83769;SDS011;73763;48.936;9.300;2023-12-04T09:26:10;12.55;;;8.75;;
83769;SDS011;73763;48.936;9.300;2023-12-04T09:28:35;12.97;;;8.27;;
83769;SDS011;73763;48.936;9.300;2023-12-04T09:31:01;12.60;;;8.80;;
83769;SDS011;73763;48.936;9.300;2023-12-04T09:33:26;15.95;;;10.15;;
83769;SDS011;73763;48.936;9.300;2023-12-04T09:35:52;13.23;;;9.53;;
83769;SDS011;73763;48.936;9.300;2023-12-04T09:38:17;14.65;;;10.13;;
83769;SDS011;73763;48.936;9.300;2023-12-04T09:40:43;14.23;;;9.27;;
83769;SDS011;73763;48.936;9.300;2023-12-04T09:43:08;13.07;;;9.60;;
83769;SDS011;73763;48.936;9.300;2023-12-04T09:45:34;13.45;;;9.20;;
83769;SDS011;73763;48.936;9.300;2023-12-04T09:48:01;14.10;;;9.15;;
83769;SDS011;73763;48.936;9.300;2023-12-04T09:50:26;14.95;;;10.35;;
83769;SDS011;73763;48.936;9.300;2023-12-04T09:52:52;14.50;;;9.73;;
83769;SDS011;73763;48.936;9.300;2023-12-04T09:55:18;14.20;;;9.43;;
83769;SDS011;73763;48.936;9.300;2023-12-04T09:57:44;12.43;;;9.43;;
83769;SDS011;73763;48.936;9.300;2023-12-04T10:00:10;13.20;;;9.40;;
83769;SDS011;73763;48.936;9.300;2023-12-04T10:02:38;12.75;;;9.15;;
83769;SDS011;73763;48.936;9.300;2023-12-04T10:05:05;13.65;;;9.35;;
83769;SDS011;73763;48.936;9.300;2023-12-04T10:07:31;14.02;;;9.65;;
83769;SDS011;73763;48.936;9.300;2023-12-04T10:09:57;14.73;;;10.07;;
83769;SDS011;73763;48.936;9.300;2023-12-04T10:12:22;12.82;;;9.27;;
83769;SDS011;73763;48.936;9.300;2023-12-04T10:15:10;12.20;;;8.83;;
83769;SDS011;73763;48.936;9.300;2023-12-04T10:17:37;22.38;;;15.85;;
83769;SDS011;73763;48.936;9.300;2023-12-04T10:20:05;22.40;;;16.80;;
83769;SDS011;73763;48.936;9.300;2023-12-04T10:22:32;19.60;;;14.55;;
83769;SDS011;73763;48.936;9.300;2023-12-04T10:24:57;18.80;;;13.63;;
83769;SDS011;73763;48.936;9.300;2023-12-04T10:27:23;28.57;;;17.50;;
83769;SDS011;73763;48.936;9.300;2023-12-04T10:29:51;22.25;;;14.15;;
83769;SDS011;73763;48.936;9.300;2023-12-04T10:32:20;18.27;;;12.57;;
83769;SDS011;73763;48.936;9.300;2023-12-04T10:34:45;18.08;;;11.45;;
83769;SDS011;73763;48.936;9.300;2023-12-04T10:37:11;20.80;;;14.07;;
83769;SDS011;73763;48.936;9.300;2023-12-04T10:39:45;23.52;;;14.52;;
83769;SDS011;73763;48.936;9.300;2023-12-04T10:42:22;25.58;;;16.27;;
83769;SDS011;73763;48.936;9.300;2023-12-04T10:44:49;20.80;;;14.10;;
83769;SDS011;73763;48.936;9.300;2023-12-04T10:47:15;19.13;;;13.20;;
83769;SDS011;73763;48.936;9.300;2023-12-04T10:49:40;16.17;;;11.75;;
83769;SDS011;73763;48.936;9.300;2023-12-04T10:52:08;15.57;;;10.20;;
83769;SDS011;73763;48.936;9.300;2023-12-04T10:54:34;14.80;;;10.40;;
83769;SDS011;73763;48.936;9.300;2023-12-04T10:57:01;15.90;;;10.40;;
83769;SDS011;73763;48.936;9.300;2023-12-04T10:59:28;15.40;;;9.70;;
83769;SDS011;73763;48.936;9.300;2023-12-04T11:01:58;15.07;;;10.10;;
83769;SDS011;73763;48.936;9.300;2023-12-04T11:04:27;16.08;;;10.73;;
83769;SDS011;73763;48.936;9.300;2023-12-04T11:06:56;14.55;;;9.88;;
83769;SDS011;73763;48.936;9.300;2023-12-04T11:09:24;13.67;;;10.00;;
83769;SDS011;73763;48.936;9.300;2023-12-04T11:11:51;13.48;;;9.55;;
83769;SDS011;73763;48.936;9.300;2023-12-04T11:14:21;14.13;;;9.55;;
83769;SDS011;73763;48.936;9.300;2023-12-04T11:16:51;14.05;;;10.20;;
83769;SDS011;73763;48.936;9.300;2023-12-04T11:22:11;14.10;;;9.53;;
83769;SDS011;73763;48.936;9.300;2023-12-04T11:24:39;14.38;;;9.70;;
83769;SDS011;73763;48.936;9.300;2023-12-04T11:27:05;12.37;;;9.57;;
83769;SDS011;73763;48.936;9.300;2023-12-04T11:29:31;13.32;;;9.05;;
83769;SDS011;73763;48.936;9.300;2023-12-04T11:31:57;14.18;;;9.90;;
83769;SDS011;73763;48.936;9.300;2023-12-04T11:34:24;12.50;;;9.37;;
83769;SDS011;73763;48.936;9.300;2023-12-04T11:36:50;13.02;;;9.23;;
83769;SDS011;73763;48.936;9.300;2023-12-04T11:39:16;13.07;;;8.97;;
83769;SDS011;73763;48.936;9.300;2023-12-04T11:41:43;11.60;;;8.90;;
83769;SDS011;73763;48.936;9.300;2023-12-04T11:44:13;13.82;;;8.93;;
83769;SDS011;73763;48.936;9.300;2023-12-04T11:46:39;13.35;;;8.77;;
83769;SDS011;73763;48.936;9.300;2023-12-04T11:49:29;14.82;;;9.68;;
83769;SDS011;73763;48.936;9.300;2023-12-04T11:51:55;15.18;;;9.50;;
83769;SDS011;73763;48.936;9.300;2023-12-04T11:54:25;12.88;;;9.40;;
83769;SDS011;73763;48.936;9.300;2023-12-04T11:59:39;14.30;;;9.30;;
83769;SDS011;73763;48.936;9.300;2023-12-04T12:02:08;13.20;;;9.20;;
83769;SDS011;73763;48.936;9.300;2023-12-04T12:04:34;11.93;;;8.93;;
83769;SDS011;73763;48.936;9.300;2023-12-04T12:07:00;13.43;;;9.50;;
83769;SDS011;73763;48.936;9.300;2023-12-04T12:09:27;13.77;;;9.95;;
83769;SDS011;73763;48.936;9.300;2023-12-04T12:11:53;13.23;;;9.15;;
83769;SDS011;73763;48.936;9.300;2023-12-04T12:14:22;15.57;;;9.85;;
83769;SDS011;73763;48.936;9.300;2023-12-04T12:16:48;14.15;;;9.68;;
83769;SDS011;73763;48.936;9.300;2023-12-04T12:19:13;14.95;;;10.50;;
83769;SDS011;73763;48.936;9.300;2023-12-04T12:21:39;14.27;;;10.07;;
83769;SDS011;73763;48.936;9.300;2023-12-04T12:24:05;13.40;;;9.82;;
83769;SDS011;73763;48.936;9.300;2023-12-04T12:26:31;14.07;;;9.88;;
83769;SDS011;73763;48.936;9.300;2023-12-04T12:28:57;13.50;;;9.53;;
83769;SDS011;73763;48.936;9.300;2023-12-04T12:31:23;13.73;;;9.83;;
83769;SDS011;73763;48.936;9.300;2023-12-04T12:33:48;13.35;;;9.57;;
83769;SDS011;73763;48.936;9.300;2023-12-04T12:36:14;14.50;;;10.17;;
83769;SDS011;73763;48.936;9.300;2023-12-04T12:38:40;14.17;;;10.43;;
83769;SDS011;73763;48.936;9.300;2023-12-04T12:41:06;13.20;;;9.33;;
83769;SDS011;73763;48.936;9.300;2023-12-04T12:43:32;14.00;;;10.50;;
83769;SDS011;73763;48.936;9.300;2023-12-04T12:45:57;14.10;;;9.63;;
83769;SDS011;73763;48.936;9.300;2023-12-04T12:48:24;14.17;;;9.77;;
83769;SDS011;73763;48.936;9.300;2023-12-04T12:50:52;13.07;;;9.63;;
83769;SDS011;73763;48.936;9.300;2023-12-04T12:53:19;14.43;;;9.80;;
83769;SDS011;73763;48.936;9.300;2023-12-04T12:55:45;15.80;;;9.57;;
83769;SDS011;73763;48.936;9.300;2023-12-04T12:58:12;14.30;;;10.05;;
83769;SDS011;73763;48.936;9.300;2023-12-04T13:00:37;16.13;;;10.48;;
83769;SDS011;73763;48.936;9.300;2023-12-04T13:03:05;16.23;;;11.07;;
83769;SDS011;73763;48.936;9.300;2023-12-04T13:05:30;22.10;;;11.45;;
83769;SDS011;73763;48.936;9.300;2023-12-04T13:07:56;17.73;;;11.43;;
83769;SDS011;73763;48.936;9.300;2023-12-04T13:10:22;16.98;;;10.60;;
83769;SDS011;73763;48.936;9.300;2023-12-04T13:12:48;18.50;;;13.25;;
83769;SDS011;73763;48.936;9.300;2023-12-04T13:15:14;14.52;;;10.88;;
83769;SDS011;73763;48.936;9.300;2023-12-04T13:17:40;15.35;;;10.30;;
83769;SDS011;73763;48.936;9.300;2023-12-04T13:20:05;12.97;;;10.03;;
83769;SDS011;73763;48.936;9.300;2023-12-04T13:22:31;17.63;;;10.33;;
83769;SDS011;73763;48.936;9.300;2023-12-04T13:24:57;15.47;;;10.37;;
83769;SDS011;73763;48.936;9.300;2023-12-04T13:27:22;15.68;;;11.57;;
83769;SDS011;73763;48.936;9.300;2023-12-04T13:29:48;17.57;;;11.50;;
83769;SDS011;73763;48.936;9.300;2023-12-04T13:32:13;19.30;;;11.20;;
83769;SDS011;73763;48.936;9.300;2023-12-04T13:34:39;16.77;;;11.67;;
83769;SDS011;73763;48.936;9.300;2023-12-04T13:37:04;15.57;;;11.63;;
83769;SDS011;73763;48.936;9.300;2023-12-04T13:39:30;15.97;;;12.03;;
83769;SDS011;73763;48.936;9.300;2023-12-04T13:41:55;18.23;;;12.87;;
83769;SDS011;73763;48.936;9.300;2023-12-04T13:44:21;19.30;;;11.82;;
83769;SDS011;73763;48.936;9.300;2023-12-04T13:46:46;16.60;;;12.30;;
83769;SDS011;73763;48.936;9.300;2023-12-04T13:49:12;18.02;;;11.55;;
83769;SDS011;73763;48.936;9.300;2023-12-04T13:51:37;17.73;;;12.20;;
83769;SDS011;73763;48.936;9.300;2023-12-04T13:54:03;16.38;;;11.93;;
83769;SDS011;73763;48.936;9.300;2023-12-04T13:56:28;17.87;;;12.17;;
83769;SDS011;73763;48.936;9.300;2023-12-04T13:58:54;16.67;;;11.75;;
83769;SDS011;73763;48.936;9.300;2023-12-04T14:01:19;17.47;;;12.50;;
83769;SDS011;73763;48.936;9.300;2023-12-04T14:03:45;19.17;;;13.33;;
83769;SDS011;73763;48.936;9.300;2023-12-04T14:06:10;20.00;;;13.95;;
83769;SDS011;73763;48.936;9.300;2023-12-04T14:08:36;18.47;;;13.10;;
83769;SDS011;73763;48.936;9.300;2023-12-04T14:11:04;18.73;;;13.13;;
83769;SDS011;73763;48.936;9.300;2023-12-04T14:13:33;20.02;;;14.63;;
83769;SDS011;73763;48.936;9.300;2023-12-04T14:16:00;17.75;;;13.60;;
83769;SDS011;73763;48.936;9.300;2023-12-04T14:18:25;18.70;;;12.87;;
83769;SDS011;73763;48.936;9.300;2023-12-04T14:20:51;18.27;;;12.38;;
83769;SDS011;73763;48.936;9.300;2023-12-04T14:23:17;21.20;;;14.43;;
83769;SDS011;73763;48.936;9.300;2023-12-04T14:25:42;23.98;;;15.68;;
83769;SDS011;73763;48.936;9.300;2023-12-04T14:28:08;20.63;;;12.87;;